CheckWX is a tool to help pilots better visualize weather data.  It is not intended as a substitute for an official pre-flight weather briefing.

21:14:37 UTC

UHPP METAR
Yelizovo Airport
Petropavlovsk-Kamchatsky, Russian Federation
Current

15 mins ago

UHPP 182100Z VRB01MPS 9999 BKN031 01/M03 Q1027 R34L/CLRD70 NOSIG RMK MT OBSC QFE766/1022
Observed
Apr-18 @ 21:00 UTC
Wind
  • Variable at 2 KTS
Visibility
10,000+ meters
Flight Rules
VFR
Cloud Levels
  • Broken at 3,100' AGL
Temperature
C / 34°F
Dewpoint
-3°C / 27°F
Humidity
75%
Altimeter
30.32" Hg
Pressure
1026.92 hPa
Previous

45 mins ago

UHPP 182030Z 34001MPS 9999 BKN031 00/M03 Q1027 R34L/CLRD70 NOSIG RMK MT OBSC QFE766/1022
Observed
Apr-18 @ 20:30 UTC
Wind
  • 340° at 2 KTS
Visibility
10,000+ meters
Flight Rules
VFR
Cloud Levels
  • Broken at 3,100' AGL
Temperature
C / 32°F
Dewpoint
-3°C / 27°F
Humidity
80%
Altimeter
30.32" Hg
Pressure
1026.92 hPa
Previous

1 hour ago

UHPP 182000Z 32002MPS 9999 BKN031 M00/M03 Q1027 R34L/CLRD70 NOSIG RMK MT OBSC QFE766/1022
Observed
Apr-18 @ 20:00 UTC
Wind
  • 320° at 4 KTS
Visibility
10,000+ meters
Flight Rules
VFR
Cloud Levels
  • Broken at 3,100' AGL
Temperature
C / 32°F
Dewpoint
-3°C / 27°F
Humidity
80%
Altimeter
30.32" Hg
Pressure
1026.92 hPa